Weather at Merlo Airport [CLOSED]

Public forecast

Using degrees Celsius for public forecast. Weather courtesy of forecast.io.

Closest aviation weather report (METAR) to Merlo Airport

Closest report is Minister Pistarini International Airport, 13.3 nm (24.6 km) SE.

2024/05/28 01:31 (retrieved 20 minutes ago)

SAEZ 280131Z 20007KT 7000 -DZ BKN010 BKN016 09/07 Q1026 NOSIG

Closest aviation forecast (TAF) to Merlo Airport

Forecast is more than 6 hours old.

Closest forecast is Rubem Berta Airport, 306.5 nm (567.7 km) NNE.

2024/05/27 18:00 (retrieved 8 hours ago)

TAF SBUG 271500Z 2718/2806 21012KT 9999 BKN010 TX10/2718Z TN07/2806Z BECMG 2719/2721 SCT015 BECMG 2802/2804 BKN008 RMK PDW